createdAt,value
2023-06-30T05:01:12.593Z,25.00
2023-06-30T05:02:12.580Z,25.00
2023-06-30T05:03:12.756Z,25.00
2023-06-30T05:04:12.614Z,25.00
2023-06-30T05:05:12.695Z,25.00
2023-06-30T05:06:12.731Z,25.00
2023-06-30T05:07:12.782Z,0.00
2023-06-30T05:08:12.741Z,0.00
2023-06-30T05:09:12.815Z,0.00
2023-06-30T05:10:12.826Z,0.00
2023-06-30T05:11:12.938Z,0.00
2023-06-30T05:12:12.968Z,0.00
2023-06-30T05:13:13.016Z,0.00
2023-06-30T05:14:13.054Z,0.00
2023-06-30T05:15:13.058Z,0.00
2023-06-30T05:16:13.330Z,0.00
2023-06-30T05:17:13.285Z,0.00
2023-06-30T05:18:13.196Z,0.00
2023-06-30T05:19:13.206Z,0.00
2023-06-30T05:20:13.261Z,0.00
2023-06-30T05:21:13.238Z,0.00
2023-06-30T05:22:13.314Z,0.00
2023-06-30T05:23:13.326Z,0.00
2023-06-30T05:24:13.373Z,11.62
2023-06-30T05:25:13.369Z,25.00
2023-06-30T05:26:13.393Z,26.91
2023-06-30T05:27:13.445Z,25.00
2023-06-30T05:28:13.492Z,25.51
2023-06-30T05:29:13.515Z,25.00
2023-06-30T05:30:13.542Z,27.37
2023-06-30T05:31:13.634Z,27.81
2023-06-30T05:32:13.603Z,25.90
2023-06-30T05:33:13.629Z,25.91
2023-06-30T05:34:13.641Z,25.70
2023-06-30T05:35:13.696Z,26.53
2023-06-30T05:36:13.719Z,25.00
2023-06-30T05:37:13.729Z,27.94
2023-06-30T05:38:13.732Z,30.73
2023-06-30T05:39:13.826Z,25.64
2023-06-30T05:40:13.801Z,25.00
2023-06-30T05:41:13.864Z,26.14
2023-06-30T05:42:13.855Z,27.79
2023-06-30T05:43:13.878Z,29.46
2023-06-30T05:44:13.944Z,27.37
2023-06-30T05:45:14.044Z,25.49
2023-06-30T05:46:13.970Z,26.96
2023-06-30T05:47:13.999Z,25.23
2023-06-30T05:48:14.005Z,26.99
2023-06-30T05:49:14.073Z,28.58
2023-06-30T05:50:14.148Z,25.05
2023-06-30T05:51:14.116Z,26.16
2023-06-30T05:52:14.167Z,26.18
2023-06-30T05:53:14.164Z,25.27
2023-06-30T05:54:14.212Z,25.72
2023-06-30T05:55:14.250Z,26.26
2023-06-30T05:56:14.277Z,26.41
2023-06-30T05:57:14.248Z,26.53
2023-06-30T05:58:14.263Z,26.21
2023-06-30T05:59:14.324Z,29.33
2023-06-30T06:00:14.410Z,28.77
2023-06-30T06:01:14.352Z,28.67
2023-06-30T06:02:14.407Z,37.56
2023-06-30T06:03:14.528Z,37.39
2023-06-30T06:04:14.521Z,38.50
2023-06-30T06:05:14.573Z,35.42
2023-06-30T06:06:14.505Z,32.22
2023-06-30T06:07:14.492Z,29.74
2023-06-30T06:08:14.490Z,32.01
2023-06-30T06:09:14.536Z,28.58
2023-06-30T06:10:14.528Z,28.21
2023-06-30T06:11:14.563Z,25.67
2023-06-30T06:12:14.593Z,29.56
2023-06-30T06:13:14.616Z,26.08
2023-06-30T06:14:14.613Z,25.00
2023-06-30T06:15:14.662Z,30.05
2023-06-30T06:16:14.687Z,29.70
2023-06-30T06:17:14.679Z,25.56
2023-06-30T06:18:14.686Z,26.98
2023-06-30T06:19:14.729Z,26.48
2023-06-30T06:20:14.712Z,25.00
2023-06-30T06:21:14.772Z,26.09
2023-06-30T06:22:14.832Z,29.93
2023-06-30T06:23:14.875Z,30.83
2023-06-30T06:24:14.807Z,27.07
2023-06-30T06:25:14.812Z,25.00
2023-06-30T06:26:14.842Z,25.00
2023-06-30T06:27:14.873Z,28.06
2023-06-30T06:28:14.884Z,29.49
2023-06-30T06:29:14.912Z,28.53
2023-06-30T06:30:14.982Z,26.10
2023-06-30T06:31:15.114Z,25.70
2023-06-30T06:32:14.993Z,29.62
2023-06-30T06:33:15.002Z,28.59
2023-06-30T06:34:15.057Z,28.50
2023-06-30T06:35:15.071Z,27.55
2023-06-30T06:36:15.095Z,25.00
2023-06-30T06:37:15.123Z,25.26
2023-06-30T06:38:15.182Z,30.55
2023-06-30T06:39:15.241Z,29.12
2023-06-30T06:40:15.189Z,25.56
2023-06-30T06:41:15.198Z,27.94
2023-06-30T06:42:15.273Z,31.85
2023-06-30T06:43:15.298Z,29.25
2023-06-30T06:44:15.363Z,32.44
2023-06-30T06:45:15.361Z,31.95
2023-06-30T06:46:15.389Z,31.56
2023-06-30T06:47:15.418Z,32.93
2023-06-30T06:48:15.440Z,33.44
2023-06-30T06:49:15.425Z,31.11
2023-06-30T06:50:15.463Z,30.04
2023-06-30T06:51:15.488Z,32.18
2023-06-30T06:52:15.511Z,29.27
2023-06-30T06:53:15.526Z,29.23
2023-06-30T06:54:15.546Z,27.89
2023-06-30T06:55:15.663Z,27.90
2023-06-30T06:56:15.597Z,29.91
2023-06-30T06:57:15.654Z,30.39
2023-06-30T06:58:15.670Z,28.00
2023-06-30T06:59:15.706Z,27.03
2023-06-30T07:00:15.708Z,27.45
2023-06-30T07:01:15.810Z,26.99
2023-06-30T07:02:15.874Z,33.21
2023-06-30T07:03:15.804Z,33.93
2023-06-30T07:04:15.864Z,33.95
2023-06-30T07:05:15.953Z,31.60
2023-06-30T07:06:15.927Z,28.64
2023-06-30T07:07:15.930Z,26.69
2023-06-30T07:08:15.920Z,28.14
2023-06-30T07:09:15.942Z,29.64
2023-06-30T07:10:15.976Z,30.05
2023-06-30T07:11:16.032Z,27.24
2023-06-30T07:12:16.025Z,32.20
2023-06-30T07:13:16.058Z,29.68
2023-06-30T07:14:16.092Z,29.30
2023-06-30T07:15:16.096Z,27.61
2023-06-30T07:16:16.178Z,29.66
2023-06-30T07:17:16.165Z,28.97
2023-06-30T07:18:16.246Z,26.93
2023-06-30T07:19:16.227Z,25.35
2023-06-30T07:20:16.222Z,25.74
2023-06-30T07:21:16.278Z,25.93
2023-06-30T07:22:16.312Z,29.68
2023-06-30T07:23:16.326Z,30.94
2023-06-30T07:24:16.345Z,28.84
2023-06-30T07:25:16.381Z,32.30
2023-06-30T07:26:16.401Z,27.68
2023-06-30T07:27:16.419Z,25.00
2023-06-30T07:28:16.416Z,25.72
2023-06-30T07:29:16.504Z,26.97
2023-06-30T07:30:16.487Z,26.53
2023-06-30T07:31:16.506Z,29.33
2023-06-30T07:32:16.530Z,25.34
2023-06-30T07:33:16.576Z,29.51
2023-06-30T07:34:16.602Z,28.00
2023-06-30T07:35:16.633Z,30.65
2023-06-30T07:36:16.682Z,30.60
2023-06-30T07:37:16.663Z,28.70
2023-06-30T07:38:16.725Z,28.40
2023-06-30T07:39:16.736Z,31.10
2023-06-30T07:40:17.450Z,29.77
2023-06-30T07:41:16.960Z,28.69
2023-06-30T07:42:16.792Z,27.31
2023-06-30T07:43:16.835Z,27.62
2023-06-30T07:44:16.859Z,29.61
2023-06-30T07:45:16.952Z,32.33
2023-06-30T07:46:16.932Z,29.09
2023-06-30T07:47:16.970Z,31.28
2023-06-30T07:48:17.004Z,30.86
2023-06-30T07:49:16.978Z,27.31
2023-06-30T07:50:17.057Z,31.49
2023-06-30T07:51:17.066Z,32.43
2023-06-30T07:52:17.078Z,29.48
2023-06-30T07:53:17.098Z,31.36
2023-06-30T07:54:17.164Z,32.73
2023-06-30T07:55:17.347Z,34.37
2023-06-30T07:56:17.186Z,35.16
2023-06-30T07:57:17.211Z,35.31
2023-06-30T07:58:17.224Z,36.14
2023-06-30T07:59:17.293Z,37.60
2023-06-30T08:00:17.298Z,33.11
2023-06-30T08:01:17.354Z,38.46
2023-06-30T08:02:17.350Z,43.11
2023-06-30T08:03:17.552Z,41.79
2023-06-30T08:04:17.571Z,46.67
2023-06-30T08:05:17.487Z,49.62
2023-06-30T08:06:17.521Z,50.72
2023-06-30T08:07:17.597Z,49.93
2023-06-30T08:08:17.492Z,51.50
2023-06-30T08:09:17.498Z,50.33
2023-06-30T08:10:17.586Z,51.81
2023-06-30T08:11:17.574Z,51.73
2023-06-30T08:12:17.559Z,54.18
2023-06-30T08:13:17.592Z,52.87
2023-06-30T08:14:17.651Z,57.17
2023-06-30T08:15:17.636Z,57.20
2023-06-30T08:16:17.667Z,54.05
2023-06-30T08:17:31.202Z,58.80
2023-06-30T08:18:28.847Z,59.15
2023-06-30T08:19:45.215Z,59.32
2023-06-30T08:20:18.740Z,59.69
2023-06-30T08:21:17.643Z,60.93
2023-06-30T08:22:17.640Z,62.74
2023-06-30T08:23:17.624Z,63.55
2023-06-30T08:24:17.622Z,65.25
2023-06-30T08:25:17.645Z,64.05
2023-06-30T08:26:17.641Z,64.93
2023-06-30T08:27:17.666Z,66.05
2023-06-30T08:28:17.631Z,62.43
2023-06-30T08:29:17.658Z,63.18
2023-06-30T08:30:17.950Z,61.13
2023-06-30T08:31:17.688Z,64.20
2023-06-30T08:32:17.600Z,64.07
2023-06-30T08:33:30.698Z,61.51
2023-06-30T08:34:18.555Z,61.97
2023-06-30T08:35:17.571Z,62.45
2023-06-30T08:36:17.579Z,62.98
2023-06-30T08:37:17.595Z,62.83
2023-06-30T08:38:17.546Z,62.34
2023-06-30T08:39:17.580Z,66.64
2023-06-30T08:40:17.520Z,65.67
2023-06-30T08:41:17.566Z,65.47
2023-06-30T08:42:17.507Z,67.10
2023-06-30T08:43:18.464Z,70.04
2023-06-30T08:44:17.512Z,67.19
2023-06-30T08:45:17.517Z,67.91
2023-06-30T08:46:17.577Z,66.54
2023-06-30T08:47:17.502Z,66.94
2023-06-30T08:48:17.477Z,66.07
2023-06-30T08:49:17.461Z,64.97
2023-06-30T08:50:17.482Z,66.34
2023-06-30T08:51:17.536Z,61.34
2023-06-30T08:52:17.446Z,66.14
2023-06-30T08:53:17.505Z,64.58
2023-06-30T08:54:17.407Z,68.18
2023-06-30T08:55:17.419Z,65.07
2023-06-30T08:56:17.514Z,62.12
2023-06-30T08:57:17.470Z,66.09
2023-06-30T08:58:25.007Z,64.34
2023-06-30T08:59:18.529Z,64.55
2023-06-30T09:00:17.601Z,65.02
2023-06-30T09:01:17.613Z,64.92
2023-06-30T09:02:17.578Z,64.00
2023-06-30T09:03:17.546Z,67.08
2023-06-30T09:04:17.477Z,66.94
2023-06-30T09:05:17.502Z,66.17
2023-06-30T09:06:17.433Z,63.06
2023-06-30T09:07:17.490Z,62.68
2023-06-30T09:08:17.547Z,63.13
2023-06-30T09:09:17.742Z,61.27
2023-06-30T09:10:17.520Z,61.95
2023-06-30T09:11:17.423Z,60.76
2023-06-30T09:12:17.398Z,62.58
2023-06-30T09:13:17.403Z,62.06
2023-06-30T09:14:17.421Z,61.83
2023-06-30T09:15:17.414Z,61.29
2023-06-30T09:16:19.208Z,65.85
2023-06-30T09:17:17.354Z,64.90
2023-06-30T09:18:17.421Z,65.48
2023-06-30T09:19:17.423Z,61.67
2023-06-30T09:20:17.438Z,70.06
2023-06-30T09:21:17.474Z,62.93
2023-06-30T09:22:53.832Z,65.09
2023-06-30T09:23:18.424Z,65.39
2023-06-30T09:24:17.426Z,63.50
2023-06-30T09:25:17.481Z,65.77
2023-06-30T09:26:17.419Z,65.23
2023-06-30T09:27:17.404Z,62.66
2023-06-30T09:28:17.373Z,66.67
2023-06-30T09:29:17.371Z,62.93
2023-06-30T09:30:17.365Z,63.87
2023-06-30T09:31:17.396Z,66.05
2023-06-30T09:32:17.447Z,64.99
2023-06-30T09:33:17.408Z,61.21
2023-06-30T09:34:17.385Z,64.35
2023-06-30T09:35:17.364Z,64.21
2023-06-30T09:36:17.334Z,63.56
2023-06-30T09:37:17.339Z,60.46
2023-06-30T09:38:17.314Z,64.42
2023-06-30T09:39:17.318Z,65.28
2023-06-30T09:40:17.317Z,62.04
2023-06-30T09:41:17.314Z,63.18
2023-06-30T09:42:17.288Z,65.89
2023-06-30T09:43:17.314Z,63.55
2023-06-30T09:44:17.320Z,62.63
2023-06-30T09:45:17.290Z,62.92
2023-06-30T09:46:17.295Z,64.28
2023-06-30T09:47:17.322Z,65.09
2023-06-30T09:48:17.314Z,65.20
2023-06-30T09:49:17.323Z,61.15
2023-06-30T09:50:17.363Z,64.45
2023-06-30T09:51:17.417Z,60.24
2023-06-30T09:52:17.378Z,62.26
2023-06-30T09:53:18.581Z,62.94
2023-06-30T09:54:17.952Z,61.62
2023-06-30T09:55:17.536Z,60.02
2023-06-30T09:56:17.531Z,63.81
2023-06-30T09:57:17.515Z,62.52
2023-06-30T09:58:17.564Z,59.68
2023-06-30T09:59:17.594Z,60.36
2023-06-30T10:00:30.206Z,63.22
2023-06-30T10:01:18.652Z,63.38
2023-06-30T10:02:17.561Z,63.35
2023-06-30T10:03:17.718Z,64.39
2023-06-30T10:04:17.541Z,63.48
2023-06-30T10:05:17.650Z,62.65
2023-06-30T10:06:17.556Z,61.17
2023-06-30T10:07:17.543Z,63.14
2023-06-30T10:08:17.538Z,61.81
2023-06-30T10:09:17.521Z,61.14
2023-06-30T10:10:17.496Z,62.69
2023-06-30T10:11:17.593Z,58.24
2023-06-30T10:12:17.504Z,60.26
2023-06-30T10:13:17.526Z,59.10
2023-06-30T10:14:17.515Z,60.51
2023-06-30T10:15:17.504Z,63.05
2023-06-30T10:16:17.427Z,60.31
2023-06-30T10:17:17.469Z,58.22
2023-06-30T10:18:17.576Z,58.09
2023-06-30T10:19:17.409Z,57.63
2023-06-30T10:20:17.444Z,57.79
2023-06-30T10:21:17.483Z,58.82
2023-06-30T10:22:17.413Z,57.45
2023-06-30T10:23:17.412Z,59.54
2023-06-30T10:24:17.386Z,60.16
2023-06-30T10:25:17.406Z,57.85
2023-06-30T10:26:17.427Z,55.36
2023-06-30T10:27:17.390Z,56.46
2023-06-30T10:28:17.403Z,56.76
2023-06-30T10:29:17.393Z,54.70
2023-06-30T10:30:17.416Z,53.94
2023-06-30T10:31:17.455Z,53.84
2023-06-30T10:32:17.414Z,55.38
2023-06-30T10:33:17.540Z,53.25
2023-06-30T10:34:17.875Z,55.21
2023-06-30T10:35:18.034Z,54.69
2023-06-30T10:36:17.495Z,54.22
2023-06-30T10:37:17.483Z,58.27
2023-06-30T10:38:17.510Z,55.09
2023-06-30T10:39:17.537Z,54.54
2023-06-30T10:40:17.553Z,52.89
2023-06-30T10:41:17.522Z,52.48
2023-06-30T10:42:17.532Z,50.80
2023-06-30T10:43:17.561Z,49.73
2023-06-30T10:44:17.556Z,54.56
2023-06-30T10:45:17.595Z,54.39
2023-06-30T10:46:17.582Z,50.89
2023-06-30T10:47:17.600Z,52.72
2023-06-30T10:48:17.633Z,52.14
2023-06-30T10:49:17.642Z,51.58
2023-06-30T10:50:17.640Z,48.32
2023-06-30T10:51:17.668Z,50.18
2023-06-30T10:52:17.696Z,51.71
2023-06-30T10:53:17.709Z,51.52
2023-06-30T10:54:17.733Z,51.64
2023-06-30T10:55:17.728Z,51.62
2023-06-30T10:56:17.718Z,49.39
2023-06-30T10:57:17.725Z,50.64
2023-06-30T10:58:17.735Z,55.08
2023-06-30T10:59:17.738Z,49.96
2023-06-30T11:00:17.759Z,53.41
2023-06-30T11:01:17.770Z,49.73
2023-06-30T11:02:17.788Z,52.34
2023-06-30T11:03:17.885Z,52.61
2023-06-30T11:04:17.861Z,53.73
2023-06-30T11:05:17.813Z,54.01
2023-06-30T11:06:17.806Z,51.23
2023-06-30T11:07:17.867Z,53.33
2023-06-30T11:08:17.822Z,52.59
2023-06-30T11:09:17.815Z,54.62
2023-06-30T11:10:17.842Z,51.46
2023-06-30T11:11:17.854Z,49.78
2023-06-30T11:12:17.884Z,50.21
2023-06-30T11:13:17.867Z,50.26
2023-06-30T11:14:17.909Z,51.43
2023-06-30T11:15:17.904Z,49.49
2023-06-30T11:16:17.894Z,48.49
2023-06-30T11:17:17.890Z,50.72
2023-06-30T11:18:18.004Z,47.28
2023-06-30T11:19:17.966Z,47.75
2023-06-30T11:20:17.944Z,49.86
2023-06-30T11:21:17.985Z,47.71
2023-06-30T11:22:17.991Z,48.82
2023-06-30T11:23:17.992Z,47.31
2023-06-30T11:24:18.013Z,46.83
2023-06-30T11:25:18.047Z,47.35
2023-06-30T11:26:18.114Z,49.94
2023-06-30T11:27:18.078Z,49.77
2023-06-30T11:28:18.082Z,47.68
2023-06-30T11:29:18.106Z,49.84
2023-06-30T11:30:18.097Z,48.22
2023-06-30T11:31:18.193Z,49.55
2023-06-30T11:32:18.140Z,46.77
2023-06-30T11:33:18.156Z,48.42
2023-06-30T11:34:18.192Z,47.56
2023-06-30T11:35:18.204Z,48.54
2023-06-30T11:36:18.281Z,47.23
2023-06-30T11:37:18.258Z,48.62
2023-06-30T11:38:18.242Z,48.34
2023-06-30T11:39:18.322Z,48.76
2023-06-30T11:40:18.335Z,48.16
2023-06-30T11:41:18.329Z,47.97
2023-06-30T11:42:18.360Z,49.67
2023-06-30T11:43:18.392Z,50.14
2023-06-30T11:44:18.372Z,49.73
2023-06-30T11:45:18.412Z,47.43
2023-06-30T11:46:18.462Z,48.09
2023-06-30T11:47:18.469Z,42.10
2023-06-30T11:48:18.478Z,36.84
2023-06-30T11:49:18.505Z,29.50
2023-06-30T11:50:21.024Z,25.00
2023-06-30T11:51:18.543Z,31.84
2023-06-30T11:52:18.527Z,28.83
2023-06-30T11:53:18.486Z,27.03
2023-06-30T11:54:18.488Z,28.68
2023-06-30T11:55:18.473Z,28.87
2023-06-30T11:56:18.469Z,26.78
2023-06-30T11:57:18.490Z,25.41
2023-06-30T11:58:18.474Z,28.06
2023-06-30T11:59:18.449Z,26.63
2023-06-30T12:00:18.474Z,27.15
2023-06-30T12:01:18.433Z,27.04
2023-06-30T12:02:18.487Z,28.53
2023-06-30T12:03:18.569Z,31.02
2023-06-30T12:04:18.552Z,26.31
2023-06-30T12:05:18.495Z,25.00
2023-06-30T12:06:18.430Z,24.90
2023-06-30T12:07:18.448Z,24.51
2023-06-30T12:08:18.400Z,30.97
2023-06-30T12:09:18.407Z,30.90
2023-06-30T12:10:18.376Z,25.88
2023-06-30T12:11:18.402Z,29.48
2023-06-30T12:12:18.379Z,26.61
2023-06-30T12:13:18.366Z,28.37
2023-06-30T12:14:18.452Z,27.13
2023-06-30T12:15:18.351Z,29.63
2023-06-30T12:16:18.392Z,25.52
2023-06-30T12:17:18.346Z,10.27
2023-06-30T12:18:18.367Z,25.00
2023-06-30T12:19:18.317Z,18.07
2023-06-30T12:20:18.333Z,30.20
2023-06-30T12:21:18.298Z,28.19
2023-06-30T12:22:18.313Z,25.00
2023-06-30T12:23:18.327Z,28.04
2023-06-30T12:24:18.302Z,30.09
2023-06-30T12:25:18.279Z,72.40
2023-06-30T12:26:18.295Z,91.97
2023-06-30T12:27:18.277Z,84.85
2023-06-30T12:28:18.265Z,87.28
2023-06-30T12:29:18.253Z,67.07
2023-06-30T12:30:18.313Z,69.13
2023-06-30T12:31:18.265Z,65.39
2023-06-30T12:32:18.285Z,52.38
2023-06-30T12:33:18.255Z,42.14
2023-06-30T12:34:18.274Z,39.46
2023-06-30T12:35:18.249Z,34.53
2023-06-30T12:36:18.209Z,26.01
2023-06-30T12:37:18.754Z,25.00
2023-06-30T12:38:18.226Z,42.27
2023-06-30T12:39:18.205Z,30.17
2023-06-30T12:40:18.225Z,38.06
2023-06-30T12:41:18.169Z,61.50
2023-06-30T12:42:18.222Z,52.84
2023-06-30T12:43:18.169Z,62.25
2023-06-30T12:44:18.156Z,39.53
2023-06-30T12:45:18.192Z,22.21
2023-06-30T12:46:18.184Z,39.13
2023-06-30T12:47:18.155Z,38.70
2023-06-30T12:48:18.126Z,23.81
2023-06-30T12:49:18.112Z,27.34
2023-06-30T12:50:18.146Z,41.87
2023-06-30T12:51:18.176Z,47.76
2023-06-30T12:52:18.100Z,52.32
2023-06-30T12:53:18.093Z,61.58
2023-06-30T12:54:18.126Z,53.36
2023-06-30T12:55:18.113Z,71.51
2023-06-30T12:56:18.087Z,63.14
2023-06-30T12:57:18.097Z,59.87
2023-06-30T12:58:18.059Z,42.44
2023-06-30T12:59:18.070Z,60.26
2023-06-30T13:00:18.061Z,59.25
2023-06-30T13:01:18.083Z,78.90
2023-06-30T13:02:18.039Z,67.37
2023-06-30T13:03:18.124Z,54.63
2023-06-30T13:04:18.044Z,57.12
2023-06-30T13:05:18.080Z,48.72
2023-06-30T13:06:18.024Z,35.48
2023-06-30T13:07:18.069Z,25.29
2023-06-30T13:08:18.040Z,46.59
2023-06-30T13:09:18.091Z,48.86
2023-06-30T13:10:18.152Z,53.31
2023-06-30T13:11:18.119Z,45.74
2023-06-30T13:12:18.135Z,58.16
2023-06-30T13:13:18.163Z,70.98
2023-06-30T13:14:18.168Z,76.23
2023-06-30T13:15:18.220Z,86.22
2023-06-30T13:16:18.249Z,65.00
2023-06-30T13:17:18.206Z,68.56
2023-06-30T13:18:18.540Z,74.47
2023-06-30T13:19:18.265Z,85.47
2023-06-30T13:20:18.292Z,77.53
2023-06-30T13:21:18.289Z,63.77
2023-06-30T13:22:18.296Z,54.45
2023-06-30T13:23:31.837Z,58.53
2023-06-30T13:24:19.316Z,58.56
2023-06-30T13:25:18.318Z,60.49
2023-06-30T13:26:18.273Z,65.13
2023-06-30T13:27:18.313Z,68.77
2023-06-30T13:28:18.288Z,91.80
2023-06-30T13:29:18.284Z,102.44
2023-06-30T13:30:18.383Z,89.51
2023-06-30T13:31:18.324Z,104.03
2023-06-30T13:32:18.272Z,100.34
2023-06-30T13:33:19.589Z,93.53
2023-06-30T13:34:18.251Z,88.25
2023-06-30T13:35:18.241Z,91.53
2023-06-30T13:36:18.226Z,77.16
2023-06-30T13:37:18.297Z,100.60
2023-06-30T13:38:18.208Z,111.88
2023-06-30T13:39:18.254Z,95.51
2023-06-30T13:40:18.245Z,94.58
2023-06-30T13:41:18.263Z,94.73
2023-06-30T13:42:18.290Z,91.56
2023-06-30T13:43:18.285Z,99.32
2023-06-30T13:44:18.320Z,107.45
2023-06-30T13:45:18.291Z,87.92
2023-06-30T13:46:18.445Z,93.78
2023-06-30T13:47:18.325Z,107.84
2023-06-30T13:48:18.336Z,108.11
2023-06-30T13:49:18.378Z,112.06
2023-06-30T13:50:18.458Z,114.45
2023-06-30T13:51:18.419Z,128.91
2023-06-30T13:52:18.415Z,135.09
2023-06-30T13:53:18.462Z,139.10
2023-06-30T13:54:18.517Z,141.35
2023-06-30T13:55:18.494Z,143.10
2023-06-30T13:56:18.492Z,139.93
2023-06-30T13:57:18.488Z,131.43
2023-06-30T13:58:18.511Z,140.39
2023-06-30T13:59:18.551Z,149.79
2023-06-30T14:00:18.549Z,154.69
2023-06-30T14:01:18.562Z,157.04
2023-06-30T14:02:18.610Z,157.09
2023-06-30T14:03:18.743Z,164.09
2023-06-30T14:04:18.729Z,174.48
2023-06-30T14:05:18.694Z,182.22
2023-06-30T14:06:18.629Z,195.73
2023-06-30T14:07:18.660Z,208.46
2023-06-30T14:08:18.663Z,226.86
2023-06-30T14:09:18.657Z,238.24
2023-06-30T14:10:18.666Z,248.59
2023-06-30T14:11:18.736Z,251.31
2023-06-30T14:12:18.725Z,250.24
2023-06-30T14:13:18.742Z,249.56
2023-06-30T14:14:18.761Z,249.94
2023-06-30T14:15:20.817Z,250.00
2023-06-30T14:16:18.815Z,249.61
2023-06-30T14:17:18.768Z,249.79
2023-06-30T14:18:18.797Z,249.14
2023-06-30T14:19:18.842Z,248.33
2023-06-30T14:20:18.822Z,246.93
2023-06-30T14:21:19.519Z,248.46
2023-06-30T14:22:18.973Z,250.00
2023-06-30T14:23:18.880Z,248.62
2023-06-30T14:24:19.483Z,248.67
2023-06-30T14:25:18.852Z,250.00
2023-06-30T14:26:18.883Z,248.61
2023-06-30T14:27:18.923Z,248.56
2023-06-30T14:28:18.929Z,249.89
2023-06-30T14:29:19.024Z,247.54
2023-06-30T14:30:18.906Z,247.70
2023-06-30T14:31:19.159Z,248.25
2023-06-30T14:32:19.513Z,249.76
2023-06-30T14:33:18.989Z,249.98
2023-06-30T14:34:18.985Z,249.38
2023-06-30T14:35:18.980Z,246.35
2023-06-30T14:36:19.030Z,247.50
2023-06-30T14:37:19.057Z,248.56
2023-06-30T14:38:21.264Z,249.24
2023-06-30T14:39:19.052Z,246.23
2023-06-30T14:40:19.033Z,245.50
2023-06-30T14:41:19.032Z,247.18
2023-06-30T14:42:31.009Z,245.89
2023-06-30T14:43:20.081Z,246.30
2023-06-30T14:44:19.037Z,246.75
2023-06-30T14:45:18.990Z,248.23
2023-06-30T14:46:19.178Z,250.41
2023-06-30T14:47:18.984Z,251.51
2023-06-30T14:48:18.993Z,248.67
2023-06-30T14:49:18.975Z,247.55
2023-06-30T14:50:18.963Z,248.48
2023-06-30T14:51:19.027Z,248.13
2023-06-30T14:52:18.962Z,248.47
2023-06-30T14:53:18.947Z,246.83
2023-06-30T14:54:18.944Z,247.90
2023-06-30T14:55:18.928Z,249.25
2023-06-30T14:56:18.934Z,247.60
2023-06-30T14:57:18.960Z,248.18
2023-06-30T14:58:18.924Z,248.09
2023-06-30T14:59:18.906Z,249.74
2023-06-30T15:00:18.903Z,249.06
2023-06-30T15:01:18.885Z,249.44
2023-06-30T15:02:19.070Z,247.30
2023-06-30T15:03:18.973Z,246.34
2023-06-30T15:04:18.941Z,247.59
2023-06-30T15:05:18.943Z,248.59
2023-06-30T15:06:18.935Z,247.42
2023-06-30T15:07:18.931Z,247.17
2023-06-30T15:08:18.952Z,250.00
2023-06-30T15:09:19.010Z,246.95
2023-06-30T15:10:19.018Z,247.94
2023-06-30T15:11:18.976Z,247.48
2023-06-30T15:12:18.991Z,247.50
2023-06-30T15:13:19.009Z,249.41
2023-06-30T15:14:18.989Z,247.16
2023-06-30T15:15:19.001Z,250.00
2023-06-30T15:16:19.031Z,248.78
2023-06-30T15:17:19.041Z,247.47
2023-06-30T15:18:19.026Z,247.81
2023-06-30T15:19:19.104Z,246.67
2023-06-30T15:20:19.111Z,247.43
2023-06-30T15:21:19.070Z,250.00
2023-06-30T15:22:19.087Z,246.52
2023-06-30T15:23:19.087Z,250.00
2023-06-30T15:24:19.120Z,249.47
2023-06-30T15:25:19.123Z,247.76
2023-06-30T15:26:19.124Z,249.69
2023-06-30T15:27:19.122Z,249.34
2023-06-30T15:28:19.117Z,248.99
2023-06-30T15:29:19.140Z,247.82
2023-06-30T15:30:19.132Z,247.84
2023-06-30T15:31:19.211Z,248.37
2023-06-30T15:32:19.288Z,249.76
2023-06-30T15:33:19.331Z,249.79
2023-06-30T15:34:19.259Z,249.28
2023-06-30T15:35:19.345Z,247.95
2023-06-30T15:36:19.327Z,246.10
2023-06-30T15:37:19.347Z,247.89
2023-06-30T15:38:19.347Z,249.45
2023-06-30T15:39:19.364Z,248.95
2023-06-30T15:40:19.411Z,247.60
2023-06-30T15:41:23.066Z,247.67
2023-06-30T15:42:19.474Z,247.77
2023-06-30T15:43:19.427Z,248.00
2023-06-30T15:44:19.399Z,248.17
2023-06-30T15:45:19.392Z,248.44
2023-06-30T15:46:19.419Z,254.14
2023-06-30T15:47:19.469Z,250.00
2023-06-30T15:48:19.360Z,247.14
2023-06-30T15:49:19.387Z,245.22
2023-06-30T15:50:19.419Z,243.42
2023-06-30T15:51:19.364Z,243.89
2023-06-30T15:52:19.375Z,244.20
2023-06-30T15:53:19.422Z,246.61
2023-06-30T15:54:19.370Z,246.21
2023-06-30T15:56:07.449Z,25.00
2023-06-30T15:57:07.402Z,25.00
2023-06-30T15:58:07.429Z,25.00
2023-06-30T15:59:07.408Z,25.00
2023-06-30T16:00:07.412Z,25.00
2023-06-30T16:01:07.398Z,25.00
2023-06-30T16:02:07.401Z,25.66
2023-06-30T16:03:07.560Z,26.24
2023-06-30T16:04:07.510Z,26.04
2023-06-30T16:05:07.516Z,28.49
2023-06-30T16:06:07.469Z,26.88
2023-06-30T16:07:07.371Z,26.76
2023-06-30T16:08:07.354Z,27.75
2023-06-30T16:09:07.346Z,27.82
2023-06-30T16:10:07.367Z,25.94
2023-06-30T16:11:07.357Z,26.47
2023-06-30T16:12:07.318Z,26.29
2023-06-30T16:13:10.871Z,26.56
2023-06-30T16:14:08.301Z,26.99
2023-06-30T16:15:07.341Z,27.26
2023-06-30T16:16:07.324Z,27.95
2023-06-30T16:17:07.310Z,28.69
2023-06-30T16:18:07.374Z,31.73
2023-06-30T16:19:07.275Z,31.28
2023-06-30T16:20:07.307Z,31.85
2023-06-30T16:21:07.299Z,30.06
2023-06-30T16:22:07.270Z,31.70
2023-06-30T16:23:07.270Z,33.97
2023-06-30T16:24:07.276Z,34.55
2023-06-30T16:25:07.244Z,34.03
2023-06-30T16:26:08.727Z,37.24
2023-06-30T16:27:07.220Z,37.40
2023-06-30T16:28:07.281Z,38.91
2023-06-30T16:29:07.262Z,41.78
2023-06-30T16:30:07.271Z,43.02
2023-06-30T16:31:07.295Z,43.35
2023-06-30T16:32:07.306Z,43.44
2023-06-30T16:33:07.386Z,42.45
2023-06-30T16:34:07.480Z,35.70
2023-06-30T16:35:07.293Z,39.57
2023-06-30T16:36:07.329Z,46.33
2023-06-30T16:37:07.339Z,45.65
2023-06-30T16:38:07.394Z,46.41
2023-06-30T16:39:07.416Z,36.77
2023-06-30T16:40:07.401Z,25.00
2023-06-30T16:41:07.425Z,30.44
2023-06-30T16:42:07.436Z,37.78
2023-06-30T16:43:07.441Z,31.19
2023-06-30T16:44:07.489Z,25.23
2023-06-30T16:45:07.486Z,29.38
2023-06-30T16:46:07.477Z,23.59
2023-06-30T16:47:07.558Z,29.15
2023-06-30T16:48:07.583Z,56.14
2023-06-30T16:49:07.522Z,59.25
2023-06-30T16:50:07.567Z,59.36
2023-06-30T16:51:07.605Z,61.83
2023-06-30T16:52:07.554Z,51.74
2023-06-30T16:53:07.592Z,45.65
2023-06-30T16:54:07.605Z,54.50
2023-06-30T16:55:07.640Z,61.58
2023-06-30T16:56:07.687Z,63.39
2023-06-30T16:57:07.677Z,63.16
2023-06-30T16:58:07.695Z,64.26
2023-06-30T16:59:07.704Z,65.86
2023-06-30T17:00:07.713Z,62.94
